createdAt,value
2019-03-19T00:02:08.876Z,38.39
2019-03-19T00:04:37.279Z,38.51
2019-03-19T00:07:05.720Z,38.43
2019-03-19T00:09:34.214Z,38.54
2019-03-19T00:12:02.681Z,38.22
2019-03-19T00:14:31.074Z,38.19
2019-03-19T00:16:59.504Z,38.39
2019-03-19T00:19:27.892Z,38.49
2019-03-19T00:21:56.327Z,38.51
2019-03-19T00:24:24.759Z,38.43
2019-03-19T00:26:53.259Z,38.36
2019-03-19T00:29:21.660Z,38.34
2019-03-19T00:31:50.072Z,38.18
2019-03-19T00:34:18.458Z,38.09
2019-03-19T00:36:46.853Z,38.14
2019-03-19T00:39:15.251Z,38.15
2019-03-19T00:41:43.656Z,38.20
2019-03-19T00:44:12.125Z,38.27
2019-03-19T00:46:40.525Z,38.38
2019-03-19T00:49:08.912Z,38.50
2019-03-19T00:51:37.312Z,38.29
2019-03-19T00:54:05.712Z,38.50
2019-03-19T00:56:34.118Z,38.21
2019-03-19T00:59:02.518Z,38.45
2019-03-19T01:01:30.958Z,38.20
2019-03-19T01:03:59.445Z,38.14
2019-03-19T01:06:27.891Z,38.00
2019-03-19T01:08:56.289Z,38.06
2019-03-19T01:11:24.772Z,38.53
2019-03-19T01:13:53.368Z,38.01
2019-03-19T01:16:21.786Z,38.35
2019-03-19T01:18:50.178Z,38.39
2019-03-19T01:21:18.608Z,38.02
2019-03-19T01:23:47.008Z,38.12
2019-03-19T01:26:15.400Z,38.18
2019-03-19T01:28:43.799Z,38.16
2019-03-19T01:31:12.227Z,37.99
2019-03-19T01:33:40.622Z,37.84
2019-03-19T01:36:09.019Z,38.17
2019-03-19T01:38:37.426Z,38.03
2019-03-19T01:41:05.828Z,38.01
2019-03-19T01:43:34.228Z,38.11
2019-03-19T01:46:02.622Z,38.15
2019-03-19T01:48:31.016Z,37.88
2019-03-19T01:50:59.410Z,37.94
2019-03-19T01:53:27.819Z,38.11
2019-03-19T01:56:04.773Z,37.80
2019-03-19T01:58:26.363Z,37.96
2019-03-19T02:00:54.778Z,37.96
2019-03-19T02:03:23.180Z,38.08
2019-03-19T02:05:51.568Z,37.66
2019-03-19T02:08:20.063Z,37.97
2019-03-19T02:10:48.469Z,37.87
2019-03-19T02:13:16.856Z,37.98
2019-03-19T02:15:45.251Z,38.04
2019-03-19T02:18:13.648Z,37.75
2019-03-19T02:20:42.049Z,37.46
2019-03-19T02:23:10.448Z,37.78
2019-03-19T02:25:38.840Z,37.56
2019-03-19T02:28:07.244Z,37.83
2019-03-19T02:30:35.640Z,37.72
2019-03-19T02:33:04.036Z,37.97
2019-03-19T02:35:32.425Z,37.58
2019-03-19T02:38:00.891Z,37.85
2019-03-19T02:40:29.290Z,37.88
2019-03-19T02:42:57.731Z,38.14
2019-03-19T02:45:26.120Z,37.79
2019-03-19T02:47:54.525Z,37.87
2019-03-19T02:50:23.022Z,37.93
2019-03-19T02:52:51.451Z,37.87
2019-03-19T02:55:19.854Z,37.74
2019-03-19T02:57:48.286Z,37.58
2019-03-19T03:00:17.823Z,37.56
2019-03-19T03:02:46.253Z,37.78
2019-03-19T03:05:22.032Z,37.54
2019-03-19T03:07:50.472Z,37.88
2019-03-19T03:10:18.980Z,37.84
2019-03-19T03:12:47.473Z,37.76
2019-03-19T03:15:15.873Z,37.81
2019-03-19T03:17:44.289Z,37.51
2019-03-19T03:20:13.737Z,37.82
2019-03-19T03:22:42.171Z,37.44
2019-03-19T03:25:12.978Z,37.13
2019-03-19T03:27:41.430Z,37.50
2019-03-19T03:30:15.161Z,37.44
2019-03-19T03:32:43.560Z,37.17
2019-03-19T03:35:11.975Z,37.29
2019-03-19T03:37:40.461Z,37.64
2019-03-19T03:40:12.125Z,37.53
2019-03-19T03:42:43.058Z,37.56
2019-03-19T03:45:12.287Z,37.60
2019-03-19T03:47:40.689Z,37.53
2019-03-19T03:50:16.013Z,37.63
2019-03-19T03:52:44.401Z,37.59
2019-03-19T03:55:13.840Z,37.16
2019-03-19T03:57:42.419Z,37.33
2019-03-19T04:00:19.010Z,36.99
2019-03-19T04:02:47.591Z,37.50
2019-03-19T04:05:16.013Z,37.39
2019-03-19T04:07:44.420Z,37.16
2019-03-19T04:10:14.920Z,37.13
2019-03-19T04:12:43.366Z,37.40
2019-03-19T04:15:15.837Z,37.30
2019-03-19T04:17:44.276Z,37.26
2019-03-19T04:20:13.710Z,37.41
2019-03-19T04:22:42.159Z,37.23
2019-03-19T04:25:10.979Z,37.32
2019-03-19T04:27:40.597Z,37.59
2019-03-19T04:30:12.679Z,37.27
2019-03-19T04:32:41.086Z,37.39
2019-03-19T04:35:09.487Z,37.50
2019-03-19T04:37:37.936Z,37.32
2019-03-19T04:40:09.587Z,37.34
2019-03-19T04:42:38.025Z,37.17
2019-03-19T04:45:08.860Z,37.03
2019-03-19T04:47:37.284Z,37.15
2019-03-19T04:50:11.146Z,37.30
2019-03-19T04:52:39.579Z,37.37
2019-03-19T04:55:10.215Z,37.21
2019-03-19T04:57:38.678Z,37.11
2019-03-19T05:00:12.292Z,37.20
2019-03-19T05:02:40.707Z,37.09
2019-03-19T05:05:10.542Z,37.00
2019-03-19T05:07:39.033Z,37.13
2019-03-19T05:10:15.515Z,37.01
2019-03-19T05:12:43.947Z,36.98
2019-03-19T05:15:12.340Z,36.89
2019-03-19T05:17:40.779Z,37.03
2019-03-19T05:20:15.888Z,36.88
2019-03-19T05:22:44.351Z,36.80
2019-03-19T05:25:12.731Z,36.93
2019-03-19T05:27:41.125Z,36.81
2019-03-19T05:30:14.865Z,36.83
2019-03-19T05:32:43.288Z,36.63
2019-03-19T05:35:11.683Z,36.89
2019-03-19T05:37:40.090Z,36.64
2019-03-19T05:40:11.736Z,36.94
2019-03-19T05:42:40.140Z,36.87
2019-03-19T05:45:10.764Z,36.90
2019-03-19T05:47:40.528Z,36.78
2019-03-19T05:50:15.312Z,36.89
2019-03-19T05:52:43.705Z,36.67
2019-03-19T05:55:12.177Z,36.73
2019-03-19T05:57:48.959Z,36.70
2019-03-19T06:00:13.206Z,36.87
2019-03-19T06:02:43.238Z,36.82
2019-03-19T06:05:12.368Z,36.60
2019-03-19T06:07:40.754Z,36.64
2019-03-19T06:10:13.149Z,36.56
2019-03-19T06:12:41.537Z,36.32
2019-03-19T06:15:14.116Z,36.57
2019-03-19T06:17:42.578Z,36.54
2019-03-19T06:20:12.916Z,36.65
2019-03-19T06:22:41.310Z,36.66
2019-03-19T06:25:11.107Z,36.32
2019-03-19T06:27:39.561Z,36.56
2019-03-19T06:30:18.487Z,36.38
2019-03-19T06:32:46.983Z,36.53
2019-03-19T06:35:16.123Z,36.20
2019-03-19T06:37:44.515Z,36.29
2019-03-19T06:40:17.834Z,36.31
2019-03-19T06:42:46.217Z,36.31
2019-03-19T06:45:18.776Z,36.35
2019-03-19T06:47:47.331Z,36.22
2019-03-19T06:50:17.862Z,35.91
2019-03-19T06:52:46.244Z,35.69
2019-03-19T06:55:16.832Z,36.09
2019-03-19T06:57:45.235Z,35.93
2019-03-19T07:00:19.179Z,35.94
2019-03-19T07:02:47.569Z,35.79
2019-03-19T07:05:17.242Z,35.71
2019-03-19T07:07:45.622Z,35.74
2019-03-19T07:10:15.152Z,35.77
2019-03-19T07:12:43.541Z,35.73
2019-03-19T07:15:18.117Z,35.67
2019-03-19T07:17:46.498Z,35.62
2019-03-19T07:20:19.642Z,35.51
2019-03-19T07:22:48.037Z,35.48
2019-03-19T07:25:16.425Z,35.45
2019-03-19T07:27:44.902Z,35.40
2019-03-19T07:30:21.413Z,35.35
2019-03-19T07:32:49.799Z,35.24
2019-03-19T07:35:18.197Z,35.37
2019-03-19T07:37:46.603Z,35.13
2019-03-19T07:40:15.862Z,35.07
2019-03-19T07:42:44.224Z,34.94
2019-03-19T07:45:22.984Z,34.97
2019-03-19T07:47:51.371Z,34.86
2019-03-19T07:50:20.602Z,34.80
2019-03-19T07:52:49.067Z,34.84
2019-03-19T07:55:17.450Z,34.72
2019-03-19T07:57:45.836Z,34.76
2019-03-19T08:00:17.869Z,34.72
2019-03-19T08:02:46.253Z,34.66
2019-03-19T08:05:14.689Z,34.60
2019-03-19T08:07:43.036Z,34.54
2019-03-19T08:10:17.315Z,34.51
2019-03-19T08:12:45.698Z,34.44
2019-03-19T08:15:15.290Z,34.42
2019-03-19T08:17:43.678Z,34.38
2019-03-19T08:20:15.570Z,34.35
2019-03-19T08:22:43.977Z,34.33
2019-03-19T08:25:13.427Z,34.27
2019-03-19T08:27:41.812Z,34.26
2019-03-19T08:30:18.727Z,34.19
2019-03-19T08:32:47.192Z,34.12
2019-03-19T08:35:15.606Z,34.02
2019-03-19T08:37:43.984Z,33.96
2019-03-19T08:40:20.345Z,33.85
2019-03-19T08:42:48.736Z,33.81
2019-03-19T08:45:18.832Z,33.75
2019-03-19T08:47:47.220Z,33.66
2019-03-19T08:50:22.477Z,33.59
2019-03-19T08:52:50.898Z,33.54
2019-03-19T08:55:19.326Z,33.42
2019-03-19T08:57:47.724Z,33.31
2019-03-19T09:00:23.378Z,33.22
2019-03-19T09:02:51.776Z,33.16
2019-03-19T09:05:20.164Z,33.11
2019-03-19T09:07:48.584Z,33.09
2019-03-19T09:10:17.906Z,33.02
2019-03-19T09:12:48.343Z,32.96
2019-03-19T09:15:17.761Z,32.92
2019-03-19T09:17:46.142Z,32.85
2019-03-19T09:20:15.574Z,32.71
2019-03-19T09:22:43.962Z,32.60
2019-03-19T09:25:12.538Z,32.46
2019-03-19T09:27:40.995Z,32.28
2019-03-19T09:30:14.736Z,32.11
2019-03-19T09:32:43.128Z,31.92
2019-03-19T09:35:11.518Z,31.72
2019-03-19T09:37:44.562Z,31.49
2019-03-19T09:40:15.492Z,31.30
2019-03-19T09:42:43.886Z,31.13
2019-03-19T09:45:13.097Z,31.06
2019-03-19T09:47:41.491Z,30.95
2019-03-19T09:50:15.201Z,30.78
2019-03-19T09:52:43.759Z,30.62
2019-03-19T09:55:14.017Z,30.44
2019-03-19T09:57:42.404Z,30.33
2019-03-19T10:00:23.693Z,30.31
2019-03-19T10:02:52.082Z,30.20
2019-03-19T10:05:20.514Z,30.24
2019-03-19T10:07:49.000Z,30.32
2019-03-19T10:10:22.367Z,30.39
2019-03-19T10:12:50.734Z,30.45
2019-03-19T10:15:19.166Z,30.48
2019-03-19T10:17:47.614Z,30.42
2019-03-19T10:20:21.283Z,30.31
2019-03-19T10:22:49.664Z,30.21
2019-03-19T10:25:18.084Z,30.21
2019-03-19T10:27:46.478Z,30.27
2019-03-19T10:30:21.777Z,30.31
2019-03-19T10:32:50.167Z,30.42
2019-03-19T10:35:18.573Z,30.51
2019-03-19T10:37:47.008Z,30.58
2019-03-19T10:40:19.654Z,30.67
2019-03-19T10:42:48.029Z,30.73
2019-03-19T10:45:20.010Z,30.65
2019-03-19T10:47:48.394Z,30.57
2019-03-19T10:50:25.148Z,30.41
2019-03-19T10:52:53.526Z,30.23
2019-03-19T10:55:21.918Z,30.20
2019-03-19T10:57:50.362Z,30.24
2019-03-19T11:00:25.666Z,30.27
2019-03-19T11:02:54.131Z,30.36
2019-03-19T11:05:23.289Z,30.48
2019-03-19T11:07:51.918Z,30.55
2019-03-19T11:10:20.323Z,30.62
2019-03-19T11:12:48.709Z,30.62
2019-03-19T11:15:19.336Z,30.40
2019-03-19T11:17:47.726Z,30.36
2019-03-19T11:20:17.378Z,30.43
2019-03-19T11:22:45.913Z,30.51
2019-03-19T11:25:27.955Z,30.58
2019-03-19T11:27:56.346Z,30.71
2019-03-19T11:30:31.680Z,30.80
2019-03-19T11:33:00.067Z,30.87
2019-03-19T11:35:28.588Z,30.64
2019-03-19T11:37:57.038Z,30.60
2019-03-19T11:40:26.262Z,30.63
2019-03-19T11:42:54.841Z,30.70
2019-03-19T11:45:24.513Z,30.78
2019-03-19T11:47:52.863Z,30.62
2019-03-19T11:50:23.839Z,29.93
2019-03-19T11:52:52.234Z,29.33
2019-03-19T11:55:20.660Z,28.55
2019-03-19T11:57:49.084Z,28.50
2019-03-19T12:00:22.415Z,28.62
2019-03-19T12:02:50.806Z,28.85
2019-03-19T12:05:19.195Z,29.08
2019-03-19T12:07:47.579Z,29.15
2019-03-19T12:10:15.976Z,29.06
2019-03-19T12:12:44.365Z,28.46
2019-03-19T12:15:13.156Z,27.65
2019-03-19T12:17:41.544Z,27.02
2019-03-19T12:20:12.540Z,26.26
2019-03-19T12:22:40.935Z,25.63
2019-03-19T12:25:10.753Z,25.72
2019-03-19T12:27:39.289Z,25.99
2019-03-19T12:30:22.581Z,26.45
2019-03-19T12:32:49.865Z,26.85
2019-03-19T12:35:18.890Z,27.31
2019-03-19T12:37:47.281Z,27.63
2019-03-19T12:40:17.763Z,27.95
2019-03-19T12:42:46.154Z,28.07
2019-03-19T12:45:16.744Z,28.01
2019-03-19T12:47:45.138Z,27.79
2019-03-19T12:50:15.670Z,27.54
2019-03-19T12:52:44.062Z,27.37
2019-03-19T12:55:12.458Z,27.15
2019-03-19T12:57:41.830Z,27.12
2019-03-19T13:00:20.510Z,27.23
2019-03-19T13:02:48.896Z,27.41
2019-03-19T13:05:17.286Z,27.58
2019-03-19T13:07:45.675Z,27.46
2019-03-19T13:10:21.531Z,27.18
2019-03-19T13:12:50.006Z,26.87
2019-03-19T13:15:19.566Z,26.58
2019-03-19T13:17:48.112Z,26.44
2019-03-19T13:20:20.467Z,26.53
2019-03-19T13:22:48.860Z,26.51
2019-03-19T13:25:18.497Z,26.72
2019-03-19T13:27:46.892Z,26.90
2019-03-19T13:30:26.623Z,27.05
2019-03-19T13:32:55.075Z,27.06
2019-03-19T13:35:23.467Z,27.04
2019-03-19T13:37:51.878Z,26.94
2019-03-19T13:40:20.392Z,26.83
2019-03-19T13:42:48.808Z,26.92
2019-03-19T13:45:25.126Z,27.08
2019-03-19T13:47:53.540Z,27.27
2019-03-19T13:50:22.374Z,27.52
2019-03-19T13:52:50.784Z,27.75
2019-03-19T13:55:20.240Z,27.93
2019-03-19T13:57:48.662Z,28.09
2019-03-19T14:00:17.809Z,28.24
2019-03-19T14:02:46.218Z,28.42
2019-03-19T14:05:16.611Z,28.61
2019-03-19T14:07:45.056Z,28.74
2019-03-19T14:10:17.238Z,28.87
2019-03-19T14:12:45.667Z,29.00
2019-03-19T14:15:16.658Z,29.10
2019-03-19T14:17:45.076Z,29.17
2019-03-19T14:20:17.701Z,29.29
2019-03-19T14:22:46.134Z,29.46
2019-03-19T14:25:15.482Z,29.52
2019-03-19T14:27:44.235Z,29.45
2019-03-19T14:30:27.687Z,29.35
2019-03-19T14:32:56.087Z,29.41
2019-03-19T14:35:24.491Z,29.58
2019-03-19T14:37:52.887Z,29.66
2019-03-19T14:40:24.901Z,29.73
2019-03-19T14:42:53.303Z,29.77
2019-03-19T14:45:21.697Z,29.90
2019-03-19T14:47:50.095Z,30.02
2019-03-19T14:50:23.764Z,30.17
2019-03-19T14:52:52.155Z,30.18
2019-03-19T14:55:20.543Z,30.38
2019-03-19T14:57:50.948Z,30.52
2019-03-19T15:00:19.894Z,30.65
2019-03-19T15:02:48.291Z,30.74
2019-03-19T15:05:16.690Z,30.85
2019-03-19T15:07:45.193Z,30.93
2019-03-19T15:10:23.766Z,31.06
2019-03-19T15:12:52.273Z,31.13
2019-03-19T15:15:21.609Z,31.12
2019-03-19T15:17:50.027Z,31.21
2019-03-19T15:20:21.678Z,31.26
2019-03-19T15:22:50.103Z,31.18
2019-03-19T15:25:18.553Z,31.30
2019-03-19T15:27:46.978Z,31.28
2019-03-19T15:30:16.798Z,31.34
2019-03-19T15:32:45.445Z,31.41
2019-03-19T15:35:13.836Z,31.50
2019-03-19T15:37:42.322Z,31.54
2019-03-19T15:40:13.314Z,31.60
2019-03-19T15:42:41.808Z,31.60
2019-03-19T15:45:12.437Z,31.72
2019-03-19T15:47:40.872Z,31.75
2019-03-19T15:50:11.797Z,31.81
2019-03-19T15:52:40.236Z,31.86
2019-03-19T15:55:08.850Z,31.94
2019-03-19T15:57:37.280Z,32.00
2019-03-19T16:00:08.999Z,32.08
2019-03-19T16:02:37.466Z,32.09
2019-03-19T16:05:08.992Z,32.18
2019-03-19T16:07:37.401Z,32.20
2019-03-19T16:10:08.029Z,32.28
2019-03-19T16:12:36.455Z,32.21
2019-03-19T16:15:07.551Z,32.39
2019-03-19T16:17:35.984Z,32.42
2019-03-19T16:20:10.205Z,32.43
2019-03-19T16:22:38.604Z,32.53
2019-03-19T16:25:08.339Z,32.62
2019-03-19T16:27:36.734Z,32.55
2019-03-19T16:30:15.890Z,32.62
2019-03-19T16:32:44.277Z,32.69
2019-03-19T16:35:13.174Z,32.73
2019-03-19T16:37:41.649Z,32.74
2019-03-19T16:40:17.567Z,32.79
2019-03-19T16:42:45.983Z,32.80
2019-03-19T16:45:14.369Z,32.85
2019-03-19T16:47:42.795Z,32.90
2019-03-19T16:50:16.007Z,32.89
2019-03-19T16:52:44.440Z,32.94
2019-03-19T16:55:15.162Z,32.96
2019-03-19T16:57:43.675Z,33.05
2019-03-19T17:00:21.338Z,32.97
2019-03-19T17:02:49.761Z,32.99
2019-03-19T17:05:18.426Z,33.03
2019-03-19T17:07:46.921Z,33.04
2019-03-19T17:10:19.796Z,33.11
2019-03-19T17:12:48.218Z,33.07
2019-03-19T17:15:17.235Z,33.15
2019-03-19T17:17:45.734Z,33.07
2019-03-19T17:20:18.240Z,33.16
2019-03-19T17:22:46.649Z,33.18
2019-03-19T17:25:23.462Z,33.12
2019-03-19T17:27:51.896Z,33.19
2019-03-19T17:30:31.203Z,33.27
2019-03-19T17:32:59.624Z,33.25
2019-03-19T17:35:28.076Z,33.30
2019-03-19T17:37:56.526Z,33.27
2019-03-19T17:40:24.911Z,33.33
2019-03-19T17:42:53.393Z,33.25
2019-03-19T17:45:21.736Z,33.48
2019-03-19T17:47:50.169Z,33.37
2019-03-19T17:50:23.877Z,33.30
2019-03-19T17:52:56.368Z,33.29
2019-03-19T17:55:26.461Z,33.29
2019-03-19T17:57:54.878Z,33.31
2019-03-19T18:00:27.725Z,33.33
2019-03-19T18:02:56.117Z,33.34
2019-03-19T18:05:24.506Z,33.37
2019-03-19T18:07:52.903Z,33.42
2019-03-19T18:10:21.441Z,33.36
2019-03-19T18:12:49.919Z,33.46
2019-03-19T18:15:19.212Z,33.41
2019-03-19T18:17:47.612Z,33.40
2019-03-19T18:20:16.750Z,33.46
2019-03-19T18:22:45.314Z,33.52
2019-03-19T18:25:15.038Z,33.55
2019-03-19T18:27:43.566Z,33.50
2019-03-19T18:30:17.015Z,33.46
2019-03-19T18:32:45.427Z,33.55
2019-03-19T18:35:13.816Z,33.62
2019-03-19T18:37:42.198Z,33.60
2019-03-19T18:40:14.869Z,33.63
2019-03-19T18:42:43.292Z,33.63
2019-03-19T18:45:16.580Z,33.82
2019-03-19T18:47:44.980Z,33.75
2019-03-19T18:50:17.511Z,33.95
2019-03-19T18:52:45.916Z,34.03
2019-03-19T18:55:14.323Z,33.79
2019-03-19T18:57:42.891Z,34.10
2019-03-19T19:00:18.236Z,34.13
2019-03-19T19:02:50.028Z,34.15
2019-03-19T19:05:20.885Z,34.22
2019-03-19T19:07:49.294Z,34.28
2019-03-19T19:10:20.903Z,34.27
2019-03-19T19:12:48.364Z,34.22
2019-03-19T19:15:23.840Z,34.27
2019-03-19T19:17:52.241Z,34.31
2019-03-19T19:20:20.713Z,34.34
2019-03-19T19:22:49.107Z,34.24
2019-03-19T19:25:22.711Z,34.26
2019-03-19T19:27:51.104Z,34.29
2019-03-19T19:30:21.837Z,34.17
2019-03-19T19:33:00.959Z,34.22
2019-03-19T19:35:21.180Z,34.27
2019-03-19T19:37:49.577Z,34.23
2019-03-19T19:40:18.543Z,34.12
2019-03-19T19:42:46.945Z,34.25
2019-03-19T19:45:18.929Z,34.19
2019-03-19T19:47:47.444Z,34.11
2019-03-19T19:50:20.983Z,34.17
2019-03-19T19:52:49.364Z,34.11
2019-03-19T19:55:17.766Z,34.17
2019-03-19T19:57:46.181Z,34.06
2019-03-19T20:00:18.513Z,34.07
2019-03-19T20:02:46.983Z,34.17
2019-03-19T20:05:15.456Z,34.07
2019-03-19T20:07:43.863Z,34.12
2019-03-19T20:10:17.034Z,34.26
2019-03-19T20:12:45.431Z,34.28
2019-03-19T20:15:14.014Z,34.25
2019-03-19T20:17:44.030Z,34.14
2019-03-19T20:20:21.322Z,34.13
2019-03-19T20:22:51.068Z,34.12
2019-03-19T20:25:19.467Z,34.32
2019-03-19T20:27:47.876Z,34.10
2019-03-19T20:30:18.505Z,34.21
2019-03-19T20:32:46.972Z,34.36
2019-03-19T20:35:15.380Z,34.34
2019-03-19T20:37:43.855Z,34.44
2019-03-19T20:40:13.901Z,34.47
2019-03-19T20:42:42.306Z,35.14
2019-03-19T20:45:12.897Z,34.95
2019-03-19T20:47:41.368Z,34.97
2019-03-19T20:50:15.741Z,35.09
2019-03-19T20:52:44.199Z,35.15
2019-03-19T20:55:12.716Z,35.21
2019-03-19T20:57:41.118Z,35.28
2019-03-19T21:00:12.906Z,35.30
2019-03-19T21:02:41.376Z,35.25
2019-03-19T21:05:09.803Z,35.30
2019-03-19T21:07:38.269Z,35.34
2019-03-19T21:10:10.087Z,35.40
2019-03-19T21:12:38.489Z,35.50
2019-03-19T21:15:09.566Z,35.54
2019-03-19T21:17:37.963Z,35.56
2019-03-19T21:20:07.468Z,35.42
2019-03-19T21:22:35.937Z,35.55
2019-03-19T21:25:05.440Z,35.49
2019-03-19T21:27:33.843Z,35.61
2019-03-19T21:30:02.311Z,35.64
2019-03-19T21:32:30.782Z,35.51
2019-03-19T21:34:59.395Z,35.54
2019-03-19T21:37:27.793Z,35.43
2019-03-19T21:39:56.231Z,35.63
2019-03-19T21:42:24.650Z,35.76
2019-03-19T21:44:53.091Z,35.75
2019-03-19T21:47:21.498Z,35.81
2019-03-19T21:49:50.054Z,35.94
2019-03-19T21:52:18.460Z,35.86
2019-03-19T21:54:46.892Z,35.95
2019-03-19T21:57:15.298Z,36.01
2019-03-19T21:59:43.741Z,36.00
2019-03-19T22:02:12.144Z,36.06
2019-03-19T22:04:40.634Z,36.06
2019-03-19T22:07:09.034Z,36.05
2019-03-19T22:09:37.496Z,36.07
2019-03-19T22:12:05.896Z,36.13
2019-03-19T22:14:34.355Z,36.16
2019-03-19T22:17:02.821Z,36.24
2019-03-19T22:19:31.226Z,36.17
2019-03-19T22:21:59.627Z,36.23
2019-03-19T22:24:28.037Z,36.23
2019-03-19T22:26:56.442Z,36.22
2019-03-19T22:29:24.845Z,36.26
2019-03-19T22:31:53.250Z,36.28
2019-03-19T22:34:21.653Z,36.36
2019-03-19T22:36:50.056Z,36.31
2019-03-19T22:39:18.453Z,36.45
2019-03-19T22:41:46.929Z,36.39
2019-03-19T22:44:15.326Z,36.39
2019-03-19T22:46:43.754Z,36.42
2019-03-19T22:49:12.156Z,36.41
2019-03-19T22:51:40.567Z,36.43
2019-03-19T22:54:08.972Z,36.52
2019-03-19T22:56:37.367Z,36.51
2019-03-19T22:59:05.881Z,36.54
2019-03-19T23:01:34.354Z,36.58
2019-03-19T23:04:02.755Z,36.58
2019-03-19T23:06:31.165Z,36.64
2019-03-19T23:08:59.563Z,36.67
2019-03-19T23:11:27.973Z,36.64
2019-03-19T23:13:56.385Z,36.58
2019-03-19T23:16:24.866Z,36.62
2019-03-19T23:18:53.263Z,36.67
2019-03-19T23:21:21.676Z,36.72
2019-03-19T23:23:50.076Z,36.72
2019-03-19T23:26:18.482Z,36.75
2019-03-19T23:28:46.877Z,36.73
2019-03-19T23:31:15.280Z,36.79
2019-03-19T23:33:43.683Z,36.75
2019-03-19T23:36:12.137Z,36.79
2019-03-19T23:38:40.542Z,36.78
2019-03-19T23:41:08.948Z,36.85
2019-03-19T23:43:37.378Z,36.83
2019-03-19T23:46:05.773Z,36.84
2019-03-19T23:48:34.177Z,36.91
2019-03-19T23:51:02.613Z,36.94
2019-03-19T23:53:31.018Z,36.99
2019-03-19T23:55:59.474Z,36.94
2019-03-19T23:58:27.878Z,37.02
